createdAt,value
2022-10-05T00:01:32.731Z,20.40
2022-10-05T00:04:15.522Z,20.30
2022-10-05T00:06:45.950Z,20.40
2022-10-05T00:09:18.458Z,20.40
2022-10-05T00:11:47.465Z,20.40
2022-10-05T00:14:22.067Z,20.30
2022-10-05T00:16:52.332Z,20.30
2022-10-05T00:19:24.464Z,20.30
2022-10-05T00:21:53.501Z,20.30
2022-10-05T00:24:22.215Z,20.30
2022-10-05T00:26:55.476Z,20.30
2022-10-05T00:29:26.789Z,20.30
2022-10-05T00:31:57.127Z,20.30
2022-10-05T00:34:27.583Z,20.20
2022-10-05T00:36:56.376Z,20.20
2022-10-05T00:39:25.382Z,20.30
2022-10-05T00:42:12.398Z,20.10
2022-10-05T00:44:47.844Z,20.10
2022-10-05T00:47:46.002Z,20.10
2022-10-05T00:50:43.503Z,20.10
2022-10-05T00:53:22.644Z,20.00
2022-10-05T00:56:02.971Z,20.00
2022-10-05T00:58:45.344Z,20.00
2022-10-05T01:01:16.529Z,20.00
2022-10-05T01:03:55.315Z,20.00
2022-10-05T01:06:31.098Z,20.00
2022-10-05T01:09:10.401Z,20.00
2022-10-05T01:11:45.040Z,19.90
2022-10-05T01:14:18.491Z,19.90
2022-10-05T01:16:53.349Z,19.90
2022-10-05T01:19:59.214Z,19.90
2022-10-05T01:22:37.958Z,19.80
2022-10-05T01:25:22.376Z,19.90
2022-10-05T01:28:01.566Z,19.90
2022-10-05T01:30:36.862Z,19.80
2022-10-05T01:33:17.166Z,19.80
2022-10-05T01:35:55.176Z,19.80
2022-10-05T01:38:35.951Z,19.80
2022-10-05T01:41:15.314Z,19.80
2022-10-05T01:43:49.494Z,19.80
2022-10-05T01:46:27.156Z,19.70
2022-10-05T01:49:09.442Z,19.80
2022-10-05T01:51:49.473Z,19.70
2022-10-05T01:54:28.727Z,19.70
2022-10-05T01:57:11.125Z,19.60
2022-10-05T01:59:55.429Z,19.60
2022-10-05T02:02:26.605Z,19.70
2022-10-05T02:05:02.399Z,19.70
2022-10-05T02:07:36.411Z,19.60
2022-10-05T02:10:16.220Z,19.70
2022-10-05T02:12:47.659Z,19.70
2022-10-05T02:15:23.614Z,19.70
2022-10-05T02:17:57.835Z,19.50
2022-10-05T02:20:30.007Z,19.50
2022-10-05T02:23:05.421Z,19.50
2022-10-05T02:25:39.319Z,19.60
2022-10-05T02:28:13.721Z,19.60
2022-10-05T02:30:48.676Z,19.50
2022-10-05T02:33:25.206Z,19.50
2022-10-05T02:35:55.057Z,19.50
2022-10-05T02:38:32.845Z,19.50
2022-10-05T02:41:13.914Z,19.40
2022-10-05T02:43:54.431Z,19.50
2022-10-05T02:46:35.063Z,19.50
2022-10-05T02:49:15.890Z,19.30
2022-10-05T02:51:52.601Z,19.20
2022-10-05T02:54:36.281Z,19.10
2022-10-05T02:57:16.228Z,19.20
2022-10-05T02:59:52.801Z,19.40
2022-10-05T03:02:28.179Z,19.50
2022-10-05T03:05:04.182Z,19.50
2022-10-05T03:07:40.785Z,19.60
2022-10-05T03:10:14.414Z,19.50
2022-10-05T03:12:52.999Z,19.50
2022-10-05T03:15:45.531Z,19.50
2022-10-05T03:18:30.753Z,19.50
2022-10-05T03:21:12.203Z,19.50
2022-10-05T03:23:49.534Z,19.40
2022-10-05T03:26:37.416Z,19.40
2022-10-05T03:29:21.174Z,19.50
2022-10-05T03:31:59.824Z,19.50
2022-10-05T03:34:37.759Z,19.30
2022-10-05T03:37:16.797Z,19.10
2022-10-05T03:39:52.854Z,19.00
2022-10-05T03:42:27.976Z,19.10
2022-10-05T03:45:02.114Z,18.90
2022-10-05T03:47:39.062Z,19.00
2022-10-05T03:50:30.803Z,19.00
2022-10-05T03:53:04.303Z,19.20
2022-10-05T03:55:38.504Z,19.20
2022-10-05T03:58:12.633Z,19.20
2022-10-05T04:00:44.194Z,19.20
2022-10-05T04:03:18.246Z,19.10
2022-10-05T04:05:53.451Z,19.10
2022-10-05T04:08:29.411Z,19.10
2022-10-05T04:11:01.076Z,19.00
2022-10-05T04:13:36.797Z,19.00
2022-10-05T04:16:12.732Z,19.10
2022-10-05T04:18:46.799Z,19.00
2022-10-05T04:21:23.928Z,19.00
2022-10-05T04:24:00.397Z,19.10
2022-10-05T04:26:38.730Z,19.20
2022-10-05T04:29:17.634Z,19.10
2022-10-05T04:32:04.561Z,19.10
2022-10-05T04:34:50.094Z,19.10
2022-10-05T04:37:27.377Z,19.10
2022-10-05T04:40:11.461Z,19.10
2022-10-05T04:42:46.530Z,19.00
2022-10-05T04:45:25.981Z,19.00
2022-10-05T04:48:12.743Z,19.00
2022-10-05T04:50:55.404Z,19.00
2022-10-05T04:53:31.785Z,19.00
2022-10-05T04:56:10.844Z,19.00
2022-10-05T04:59:05.759Z,19.00
2022-10-05T05:01:56.671Z,19.00
2022-10-05T05:04:42.756Z,18.90
2022-10-05T05:07:24.355Z,18.90
2022-10-05T05:10:19.295Z,18.90
2022-10-05T05:12:59.540Z,19.00
2022-10-05T05:15:41.281Z,19.00
2022-10-05T05:18:48.801Z,19.10
2022-10-05T05:21:33.201Z,19.10
2022-10-05T05:24:11.269Z,19.10
2022-10-05T05:26:56.021Z,19.00
2022-10-05T05:29:38.731Z,18.90
2022-10-05T05:32:14.519Z,18.80
2022-10-05T05:34:58.374Z,18.70
2022-10-05T05:37:36.277Z,18.70
2022-10-05T05:40:14.628Z,18.70
2022-10-05T05:42:55.097Z,18.60
2022-10-05T05:45:35.656Z,18.60
2022-10-05T05:48:15.310Z,18.70
2022-10-05T05:50:52.690Z,18.60
2022-10-05T05:53:27.062Z,18.70
2022-10-05T05:56:01.319Z,18.70
2022-10-05T05:58:40.304Z,18.70
2022-10-05T06:01:31.723Z,18.80
2022-10-05T06:04:07.084Z,18.90
2022-10-05T06:06:41.725Z,18.90
2022-10-05T06:09:20.799Z,18.90
2022-10-05T06:11:59.722Z,18.90
2022-10-05T06:14:34.840Z,18.90
2022-10-05T06:17:07.929Z,19.00
2022-10-05T06:19:39.658Z,19.00
2022-10-05T06:22:19.285Z,19.10
2022-10-05T06:25:01.200Z,19.20
2022-10-05T06:27:37.251Z,19.20
2022-10-05T06:30:15.255Z,19.30
2022-10-05T06:33:06.386Z,19.40
2022-10-05T06:35:54.055Z,19.40
2022-10-05T06:38:39.885Z,19.50
2022-10-05T06:41:17.896Z,19.50
2022-10-05T06:43:58.094Z,19.70
2022-10-05T06:47:10.793Z,19.80
2022-10-05T06:50:11.299Z,19.80
2022-10-05T06:53:21.520Z,19.80
2022-10-05T06:55:57.448Z,20.00
2022-10-05T06:58:50.361Z,20.10
2022-10-05T07:01:36.058Z,20.10
2022-10-05T07:04:36.629Z,20.20
2022-10-05T07:07:13.603Z,20.30
2022-10-05T07:09:51.191Z,20.30
2022-10-05T07:12:47.270Z,20.40
2022-10-05T07:15:26.916Z,20.50
2022-10-05T07:18:06.473Z,20.60
2022-10-05T07:20:49.208Z,20.60
2022-10-05T07:23:38.249Z,20.70
2022-10-05T07:26:15.008Z,20.70
2022-10-05T07:28:50.542Z,20.70
2022-10-05T07:31:28.101Z,20.70
2022-10-05T07:34:08.569Z,20.80
2022-10-05T07:37:02.633Z,20.80
2022-10-05T07:39:58.983Z,20.90
2022-10-05T07:42:48.771Z,20.90
2022-10-05T07:45:30.519Z,20.90
2022-10-05T07:48:08.737Z,20.90
2022-10-05T07:50:44.856Z,20.90
2022-10-05T07:53:21.325Z,20.90
2022-10-05T07:55:54.725Z,20.90
2022-10-05T07:58:29.670Z,20.80
2022-10-05T08:01:09.997Z,20.70
2022-10-05T08:03:52.386Z,20.60
2022-10-05T08:06:49.523Z,20.60
2022-10-05T08:09:37.322Z,20.70
2022-10-05T08:12:21.270Z,20.40
2022-10-05T08:14:54.679Z,20.40
2022-10-05T08:17:32.440Z,20.40
2022-10-05T08:20:22.127Z,20.50
2022-10-05T08:22:56.946Z,20.60
2022-10-05T08:25:40.118Z,20.80
2022-10-05T08:28:15.958Z,20.90
2022-10-05T08:30:57.096Z,20.90
2022-10-05T08:33:27.988Z,21.00
2022-10-05T08:36:05.180Z,21.10
2022-10-05T08:38:35.974Z,21.20
2022-10-05T08:41:38.248Z,21.20
2022-10-05T08:44:52.532Z,21.40
2022-10-05T08:47:59.575Z,21.40
2022-10-05T08:50:46.693Z,21.50
2022-10-05T08:53:45.830Z,21.50
2022-10-05T08:56:42.584Z,21.70
2022-10-05T08:59:44.837Z,21.70
2022-10-05T09:02:33.452Z,21.90
2022-10-05T09:05:27.241Z,22.10
2022-10-05T09:08:28.217Z,22.10
2022-10-05T09:11:05.245Z,22.20
2022-10-05T09:13:54.612Z,22.20
2022-10-05T09:16:46.025Z,22.20
2022-10-05T09:19:50.778Z,22.30
2022-10-05T09:22:36.299Z,22.50
2022-10-05T09:25:24.078Z,22.60
2022-10-05T09:28:00.387Z,22.60
2022-10-05T09:31:12.916Z,22.50
2022-10-05T09:34:18.039Z,22.60
2022-10-05T09:37:31.428Z,22.60
2022-10-05T09:40:52.995Z,22.50
2022-10-05T09:43:40.628Z,22.60
2022-10-05T09:46:38.382Z,22.80
2022-10-05T09:49:49.320Z,22.70
2022-10-05T09:52:41.490Z,22.70
2022-10-05T09:55:55.124Z,22.80
2022-10-05T09:59:07.646Z,22.90
2022-10-05T10:02:17.197Z,23.00
2022-10-05T10:05:08.078Z,23.10
2022-10-05T10:07:58.255Z,23.20
2022-10-05T10:10:59.289Z,23.10
2022-10-05T10:14:00.630Z,23.10
2022-10-05T10:17:30.438Z,23.10
2022-10-05T10:20:22.703Z,23.00
2022-10-05T10:23:07.763Z,23.20
2022-10-05T10:26:00.428Z,23.50
2022-10-05T10:28:59.316Z,23.50
2022-10-05T10:31:52.783Z,23.60
2022-10-05T10:34:42.916Z,23.80
2022-10-05T10:37:41.062Z,23.90
2022-10-05T10:40:38.682Z,23.80
2022-10-05T10:43:41.220Z,24.10
2022-10-05T10:46:22.131Z,23.90
2022-10-05T10:49:08.186Z,23.90
2022-10-05T10:52:06.456Z,24.10
2022-10-05T10:55:14.502Z,24.20
2022-10-05T10:57:59.889Z,24.40
2022-10-05T11:00:47.538Z,24.10
2022-10-05T11:03:54.499Z,24.10
2022-10-05T11:06:41.334Z,24.10
2022-10-05T11:09:22.301Z,24.30
2022-10-05T11:12:34.294Z,24.00
2022-10-05T11:15:18.861Z,23.80
2022-10-05T11:18:16.391Z,23.90
2022-10-05T11:21:31.898Z,24.30
2022-10-05T11:24:45.016Z,24.40
2022-10-05T11:27:34.067Z,24.60
2022-10-05T11:31:02.193Z,24.40
2022-10-05T11:34:11.762Z,24.30
2022-10-05T11:37:11.727Z,24.60
2022-10-05T11:39:46.460Z,24.80
2022-10-05T11:42:49.789Z,24.60
2022-10-05T11:45:32.300Z,24.30
2022-10-05T11:48:35.448Z,24.20
2022-10-05T11:51:36.757Z,24.20
2022-10-05T11:54:58.551Z,24.40
2022-10-05T11:57:34.770Z,24.50
2022-10-05T12:00:13.813Z,24.60
2022-10-05T12:03:17.415Z,24.60
2022-10-05T12:06:04.253Z,24.40
2022-10-05T12:08:45.210Z,24.30
2022-10-05T12:11:33.146Z,24.20
2022-10-05T12:14:07.851Z,23.90
2022-10-05T12:16:43.925Z,24.20
2022-10-05T12:19:19.779Z,24.30
2022-10-05T12:21:51.436Z,24.10
2022-10-05T12:24:26.964Z,23.90
2022-10-05T12:27:04.152Z,24.10
2022-10-05T12:29:43.960Z,24.20
2022-10-05T12:32:17.900Z,24.30
2022-10-05T12:35:01.705Z,24.20
2022-10-05T12:37:43.223Z,24.20
2022-10-05T12:40:25.037Z,24.20
2022-10-05T12:43:03.554Z,24.10
2022-10-05T12:45:47.565Z,24.10
2022-10-05T12:48:37.811Z,24.20
2022-10-05T12:51:17.300Z,24.30
2022-10-05T12:53:56.378Z,24.40
2022-10-05T12:56:39.144Z,24.30
2022-10-05T12:59:19.629Z,24.20
2022-10-05T13:01:54.314Z,24.30
2022-10-05T13:04:39.736Z,24.40
2022-10-05T13:07:39.079Z,24.30
2022-10-05T13:10:28.313Z,24.20
2022-10-05T13:13:17.707Z,24.10
2022-10-05T13:15:54.504Z,23.90
2022-10-05T13:18:31.312Z,23.60
2022-10-05T13:21:05.824Z,23.80
2022-10-05T13:24:11.743Z,23.90
2022-10-05T13:26:45.144Z,24.10
2022-10-05T13:29:23.665Z,23.80
2022-10-05T13:31:55.684Z,23.90
2022-10-05T13:34:32.560Z,23.90
2022-10-05T13:37:13.847Z,23.70
2022-10-05T13:39:58.288Z,23.80
2022-10-05T13:42:35.631Z,23.70
2022-10-05T13:45:13.840Z,23.80
2022-10-05T13:47:56.952Z,23.90
2022-10-05T13:50:33.471Z,23.90
2022-10-05T13:53:13.856Z,24.20
2022-10-05T13:55:47.989Z,24.30
2022-10-05T13:58:25.110Z,24.40
2022-10-05T14:00:56.290Z,23.80
2022-10-05T14:03:28.101Z,23.70
2022-10-05T14:05:59.402Z,23.70
2022-10-05T14:08:30.740Z,23.60
2022-10-05T14:11:03.253Z,23.70
2022-10-05T14:13:46.659Z,23.60
2022-10-05T14:16:24.354Z,23.70
2022-10-05T14:18:57.205Z,23.90
2022-10-05T14:21:28.355Z,23.90
2022-10-05T14:23:58.892Z,24.00
2022-10-05T14:26:37.179Z,23.90
2022-10-05T14:29:18.704Z,23.80
2022-10-05T14:31:54.758Z,23.70
2022-10-05T14:34:35.131Z,23.80
2022-10-05T14:37:18.258Z,23.70
2022-10-05T14:39:49.031Z,23.80
2022-10-05T14:42:22.495Z,23.80
2022-10-05T14:45:03.002Z,23.70
2022-10-05T14:47:34.475Z,23.80
2022-10-05T14:50:17.067Z,23.80
2022-10-05T14:52:51.861Z,23.70
2022-10-05T14:55:38.868Z,23.50
2022-10-05T14:58:24.024Z,24.20
2022-10-05T15:01:01.608Z,24.10
2022-10-05T15:03:52.495Z,23.90
2022-10-05T15:06:30.615Z,23.90
2022-10-05T15:09:24.818Z,24.10
2022-10-05T15:11:57.039Z,24.60
2022-10-05T15:14:32.362Z,24.50
2022-10-05T15:17:03.816Z,25.00
2022-10-05T15:19:46.249Z,24.40
2022-10-05T15:22:31.842Z,24.30
2022-10-05T15:25:11.928Z,23.90
2022-10-05T15:27:56.468Z,23.80
2022-10-05T15:30:26.998Z,23.80
2022-10-05T15:33:09.334Z,23.60
2022-10-05T15:36:00.888Z,24.20
2022-10-05T15:38:37.140Z,24.50
2022-10-05T15:41:15.126Z,24.20
2022-10-05T15:43:56.533Z,23.90
2022-10-05T15:46:34.567Z,24.00
2022-10-05T15:49:16.748Z,23.70
2022-10-05T15:51:57.764Z,23.70
2022-10-05T15:54:42.657Z,23.70
2022-10-05T15:57:22.474Z,23.70
2022-10-05T16:00:02.148Z,23.70
2022-10-05T16:02:42.624Z,23.50
2022-10-05T16:05:42.112Z,23.50
2022-10-05T16:08:36.530Z,23.30
2022-10-05T16:11:09.216Z,23.40
2022-10-05T16:13:45.463Z,23.40
2022-10-05T16:16:25.938Z,23.50
2022-10-05T16:19:05.436Z,23.30
2022-10-05T16:21:44.386Z,23.10
2022-10-05T16:24:25.666Z,23.20
2022-10-05T16:27:01.425Z,23.10
2022-10-05T16:29:41.240Z,23.10
2022-10-05T16:32:17.439Z,23.10
2022-10-05T16:35:01.102Z,23.10
2022-10-05T16:37:41.315Z,23.00
2022-10-05T16:40:19.436Z,23.00
2022-10-05T16:42:59.974Z,22.90
2022-10-05T16:45:49.480Z,22.90
2022-10-05T16:48:26.166Z,22.80
2022-10-05T16:51:09.972Z,22.90
2022-10-05T16:53:42.957Z,22.80
2022-10-05T16:56:15.815Z,22.70
2022-10-05T16:59:00.616Z,22.80
2022-10-05T17:01:44.206Z,22.70
2022-10-05T17:04:24.183Z,22.70
2022-10-05T17:07:11.255Z,22.70
2022-10-05T17:09:59.541Z,22.60
2022-10-05T17:12:46.950Z,22.50
2022-10-05T17:15:34.580Z,22.40
2022-10-05T17:18:25.605Z,22.40
2022-10-05T17:21:10.875Z,22.50
2022-10-05T17:23:54.914Z,22.50
2022-10-05T17:26:57.445Z,22.30
2022-10-05T17:29:32.513Z,22.30
2022-10-05T17:32:04.199Z,22.30
2022-10-05T17:34:34.981Z,22.30
2022-10-05T17:37:35.634Z,22.40
2022-10-05T17:40:37.714Z,22.40
2022-10-05T17:43:25.418Z,22.20
2022-10-05T17:46:00.852Z,22.10
2022-10-05T17:49:06.799Z,22.20
2022-10-05T17:52:19.208Z,22.20
2022-10-05T17:55:30.770Z,22.00
2022-10-05T17:58:23.159Z,22.00
2022-10-05T18:01:17.468Z,22.10
2022-10-05T18:03:50.313Z,22.10
2022-10-05T18:06:52.009Z,22.20
2022-10-05T18:09:33.221Z,22.10
2022-10-05T18:12:27.069Z,22.10
2022-10-05T18:15:01.806Z,22.10
2022-10-05T18:17:45.331Z,22.10
2022-10-05T18:20:32.919Z,22.00
2022-10-05T18:23:35.874Z,21.90
2022-10-05T18:26:17.388Z,22.00
2022-10-05T18:28:57.608Z,22.10
2022-10-05T18:31:37.284Z,22.10
2022-10-05T18:34:27.535Z,22.10
2022-10-05T18:37:10.997Z,22.10
2022-10-05T18:39:52.799Z,22.00
2022-10-05T18:42:32.968Z,22.00
2022-10-05T18:45:15.410Z,21.90
2022-10-05T18:47:51.190Z,21.90
2022-10-05T18:50:28.551Z,21.90
2022-10-05T18:53:14.332Z,21.90
2022-10-05T18:55:47.117Z,22.00
2022-10-05T18:58:23.071Z,22.00
2022-10-05T19:01:24.295Z,21.90
2022-10-05T19:04:10.634Z,22.00
2022-10-05T19:06:46.601Z,21.90
2022-10-05T19:09:29.448Z,22.00
2022-10-05T19:12:09.755Z,21.90
2022-10-05T19:14:48.885Z,22.00
2022-10-05T19:17:26.724Z,22.00
2022-10-05T19:20:17.671Z,22.00
2022-10-05T19:23:02.243Z,21.90
2022-10-05T19:25:39.680Z,21.90
2022-10-05T19:28:17.590Z,21.80
2022-10-05T19:31:00.730Z,22.00
2022-10-05T19:33:52.996Z,22.00
2022-10-05T19:36:46.751Z,21.90
2022-10-05T19:39:22.933Z,21.90
2022-10-05T19:42:06.470Z,21.90
2022-10-05T19:44:53.435Z,21.90
2022-10-05T19:47:37.617Z,21.90
2022-10-05T19:50:26.368Z,21.90
2022-10-05T19:53:10.482Z,21.90
2022-10-05T19:55:41.794Z,21.90
2022-10-05T19:58:22.573Z,21.90
2022-10-05T20:00:58.080Z,21.90
2022-10-05T20:03:29.437Z,21.90
2022-10-05T20:06:02.486Z,21.90
2022-10-05T20:08:40.272Z,22.00
2022-10-05T20:11:14.459Z,22.00
2022-10-05T20:13:46.158Z,21.90
2022-10-05T20:16:45.998Z,21.90
2022-10-05T20:19:54.878Z,21.80
2022-10-05T20:22:34.370Z,21.90
2022-10-05T20:25:07.194Z,21.90
2022-10-05T20:27:39.198Z,21.90
2022-10-05T20:30:10.984Z,21.80
2022-10-05T20:32:39.975Z,21.80
2022-10-05T20:35:09.776Z,21.70
2022-10-05T20:37:39.364Z,21.80
2022-10-05T20:40:11.583Z,21.80
2022-10-05T20:42:40.501Z,21.80
2022-10-05T20:45:10.450Z,21.70
2022-10-05T20:47:39.387Z,21.70
2022-10-05T20:50:10.345Z,21.70
2022-10-05T20:52:39.951Z,21.70
2022-10-05T20:55:12.171Z,21.50
2022-10-05T20:57:42.470Z,21.40
2022-10-05T21:00:13.278Z,21.40
2022-10-05T21:02:42.399Z,21.30
2022-10-05T21:05:11.469Z,21.30
2022-10-05T21:07:41.028Z,21.30
2022-10-05T21:10:11.849Z,21.20
2022-10-05T21:12:41.267Z,21.30
2022-10-05T21:15:10.777Z,21.30
2022-10-05T21:17:40.162Z,21.30
2022-10-05T21:20:11.823Z,21.30
2022-10-05T21:22:41.321Z,21.20
2022-10-05T21:25:11.906Z,21.30
2022-10-05T21:27:41.494Z,21.20
2022-10-05T21:30:11.420Z,21.20
2022-10-05T21:32:44.193Z,21.20
2022-10-05T21:35:13.903Z,21.20
2022-10-05T21:37:42.751Z,21.10
2022-10-05T21:40:13.854Z,21.10
2022-10-05T21:42:43.140Z,21.20
2022-10-05T21:45:12.588Z,21.20
2022-10-05T21:47:42.235Z,21.20
2022-10-05T21:50:11.787Z,21.20
2022-10-05T21:52:41.037Z,21.30
2022-10-05T21:55:11.482Z,21.20
2022-10-05T21:57:42.407Z,21.20
2022-10-05T22:00:14.142Z,21.20
2022-10-05T22:02:43.121Z,21.10
2022-10-05T22:05:12.036Z,21.20
2022-10-05T22:07:41.116Z,21.20
2022-10-05T22:10:10.612Z,21.20
2022-10-05T22:12:39.599Z,21.20
2022-10-05T22:15:11.064Z,21.20
2022-10-05T22:17:41.517Z,21.20
2022-10-05T22:20:13.665Z,21.10
2022-10-05T22:22:42.623Z,21.10
2022-10-05T22:25:12.031Z,21.10
2022-10-05T22:27:41.314Z,21.10
2022-10-05T22:30:14.978Z,21.00
2022-10-05T22:32:44.145Z,21.00
2022-10-05T22:35:12.896Z,21.00
2022-10-05T22:37:41.820Z,20.90
2022-10-05T22:40:11.940Z,21.00
2022-10-05T22:42:41.324Z,21.00
2022-10-05T22:45:12.068Z,20.90
2022-10-05T22:47:42.677Z,20.90
2022-10-05T22:50:12.072Z,21.00
2022-10-05T22:52:41.609Z,21.10
2022-10-05T22:55:11.188Z,21.10
2022-10-05T22:57:40.603Z,21.10
2022-10-05T23:00:12.928Z,21.10
2022-10-05T23:02:43.449Z,21.10
2022-10-05T23:05:14.832Z,21.00
2022-10-05T23:07:46.716Z,21.10
2022-10-05T23:10:17.534Z,21.10
2022-10-05T23:12:58.349Z,21.10
2022-10-05T23:15:30.883Z,21.10
2022-10-05T23:17:59.681Z,21.10
2022-10-05T23:20:28.722Z,21.10
2022-10-05T23:22:57.458Z,21.00
2022-10-05T23:25:26.763Z,21.00
2022-10-05T23:27:55.648Z,20.90
2022-10-05T23:30:24.967Z,20.90
2022-10-05T23:32:55.306Z,20.90
2022-10-05T23:35:24.211Z,20.90
2022-10-05T23:37:53.032Z,20.90
2022-10-05T23:40:22.085Z,20.80
2022-10-05T23:42:51.450Z,20.80
2022-10-05T23:45:20.427Z,20.80
2022-10-05T23:47:49.334Z,20.90
2022-10-05T23:50:21.344Z,20.80
2022-10-05T23:52:50.404Z,20.90
2022-10-05T23:55:19.314Z,20.80
2022-10-05T23:57:48.315Z,20.80
